createdAt,value
2017-07-07T00:00:07.083Z,15.27
2017-07-07T00:00:25.257Z,15.23
2017-07-07T00:00:43.430Z,15.26
2017-07-07T00:01:02.634Z,15.2
2017-07-07T00:01:20.281Z,15.31
2017-07-07T00:01:39.461Z,15.26
2017-07-07T00:01:58.133Z,15.33
2017-07-07T00:02:15.789Z,15.26
2017-07-07T00:02:35.000Z,15.34
2017-07-07T00:02:53.705Z,15.24
2017-07-07T00:03:12.371Z,15.27
2017-07-07T00:03:30.023Z,15.23
2017-07-07T00:03:49.237Z,15.3
2017-07-07T00:04:07.897Z,15.24
2017-07-07T00:04:26.048Z,15.27
2017-07-07T00:04:45.229Z,15.27
2017-07-07T00:05:04.453Z,15.28
2017-07-07T00:05:23.127Z,15.26
2017-07-07T00:05:41.813Z,15.34
2017-07-07T00:06:01.006Z,15.33
2017-07-07T00:06:20.191Z,15.2
2017-07-07T00:06:38.335Z,15.26
2017-07-07T00:06:57.543Z,15.21
2017-07-07T00:07:15.689Z,15.23
2017-07-07T00:07:34.387Z,15.33
2017-07-07T00:07:53.168Z,15.24
2017-07-07T00:08:11.862Z,15.24
2017-07-07T00:08:30.555Z,15.28
2017-07-07T00:08:49.852Z,15.18
2017-07-07T00:09:09.054Z,15.16
2017-07-07T00:09:28.239Z,15.16
2017-07-07T00:09:46.906Z,15.27
2017-07-07T00:10:05.567Z,15.16
2017-07-07T00:10:24.764Z,15.16
2017-07-07T00:10:43.441Z,15.16
2017-07-07T00:11:02.113Z,15.23
2017-07-07T00:11:21.377Z,15.27
2017-07-07T00:11:40.092Z,15.26
2017-07-07T00:11:58.782Z,15.27
2017-07-07T00:12:17.477Z,15.21
2017-07-07T00:12:36.644Z,15.24
2017-07-07T00:12:54.789Z,15.3
2017-07-07T00:13:12.953Z,15.18
2017-07-07T00:13:31.630Z,15.23
2017-07-07T00:13:50.320Z,15.15
2017-07-07T00:14:08.494Z,15.13
2017-07-07T00:14:27.674Z,15.13
2017-07-07T00:14:46.844Z,15.12
2017-07-07T00:15:06.043Z,15.03
2017-07-07T00:15:25.240Z,15.09
2017-07-07T00:15:44.447Z,15.15
2017-07-07T00:16:03.120Z,15.1
2017-07-07T00:16:21.783Z,15.06
2017-07-07T00:16:40.961Z,15.05
2017-07-07T00:16:59.158Z,15.1
2017-07-07T00:17:17.328Z,15.05
2017-07-07T00:17:36.525Z,15.09
2017-07-07T00:17:55.722Z,15.06
2017-07-07T00:18:14.404Z,15.13
2017-07-07T00:18:32.568Z,15.09
2017-07-07T00:18:51.244Z,15.18
2017-07-07T00:19:09.941Z,15.15
2017-07-07T00:19:28.104Z,15.13
2017-07-07T00:19:47.306Z,15.13
2017-07-07T00:20:06.667Z,15.05
2017-07-07T00:20:25.967Z,15.06
2017-07-07T00:20:44.713Z,15.1
2017-07-07T00:21:03.943Z,15.08
2017-07-07T00:21:23.161Z,15.13
2017-07-07T00:21:42.411Z,15.13
2017-07-07T00:22:01.167Z,15.16
2017-07-07T00:22:19.579Z,15.08
2017-07-07T00:22:36.797Z,15.1
2017-07-07T00:22:54.971Z,15.06
2017-07-07T00:23:13.142Z,15.05
2017-07-07T00:23:31.305Z,15.09
2017-07-07T00:23:49.466Z,15.09
2017-07-07T00:24:08.140Z,15.05
2017-07-07T00:24:27.342Z,15.09
2017-07-07T00:24:46.053Z,15.13
2017-07-07T00:25:04.781Z,15.15
2017-07-07T00:25:22.951Z,15.13
2017-07-07T00:25:41.651Z,15.12
2017-07-07T00:25:59.337Z,15.13
2017-07-07T00:26:18.560Z,15.09
2017-07-07T00:26:37.230Z,15.02
2017-07-07T00:26:55.977Z,15.05
2017-07-07T00:27:14.145Z,15.12
2017-07-07T00:27:33.337Z,15.03
2017-07-07T00:27:52.546Z,15.05
2017-07-07T00:28:11.225Z,15.05
2017-07-07T00:28:30.399Z,15.05
2017-07-07T00:28:49.597Z,15.1
2017-07-07T00:29:08.285Z,15.05
2017-07-07T00:29:27.470Z,15.12
2017-07-07T00:29:46.685Z,15.02
2017-07-07T00:30:04.829Z,15.06
2017-07-07T00:30:22.979Z,15.06
2017-07-07T00:30:41.670Z,14.98
2017-07-07T00:31:01.097Z,15.05
2017-07-07T00:31:20.282Z,15.02
2017-07-07T00:31:39.510Z,15.03
2017-07-07T00:31:58.201Z,15.03
2017-07-07T00:32:16.897Z,15.03
2017-07-07T00:32:35.571Z,15.05
2017-07-07T00:32:54.255Z,15.03
2017-07-07T00:33:13.425Z,15.06
2017-07-07T00:33:32.145Z,15.06
2017-07-07T00:33:50.320Z,15.12
2017-07-07T00:34:09.507Z,15.12
2017-07-07T00:34:28.196Z,15.03
2017-07-07T00:34:46.375Z,15.06
2017-07-07T00:35:05.115Z,15.03
2017-07-07T00:35:23.294Z,15.09
2017-07-07T00:35:41.966Z,14.93
2017-07-07T00:36:00.632Z,14.98
2017-07-07T00:36:19.807Z,14.93
2017-07-07T00:36:38.499Z,15.03
2017-07-07T00:36:57.181Z,14.98
2017-07-07T00:37:15.062Z,14.97
2017-07-07T00:37:32.695Z,15.01
2017-07-07T00:37:51.385Z,14.94
2017-07-07T00:38:10.578Z,14.91
2017-07-07T00:38:28.455Z,14.91
2017-07-07T00:38:46.615Z,14.94
2017-07-07T00:39:05.812Z,14.94
2017-07-07T00:39:25.017Z,14.94
2017-07-07T00:39:43.742Z,15.01
2017-07-07T00:40:02.415Z,15.01
2017-07-07T00:40:20.582Z,14.95
2017-07-07T00:40:39.258Z,14.95
2017-07-07T00:40:57.406Z,14.93
2017-07-07T00:41:16.098Z,14.97
2017-07-07T00:41:34.282Z,14.97
2017-07-07T00:41:52.615Z,14.98
2017-07-07T00:42:11.291Z,14.98
2017-07-07T00:42:30.587Z,14.95
2017-07-07T00:42:49.361Z,14.93
2017-07-07T00:43:08.036Z,14.95
2017-07-07T00:43:27.264Z,14.95
2017-07-07T00:43:45.941Z,14.98
2017-07-07T00:44:05.132Z,14.97
2017-07-07T00:44:23.314Z,14.93
2017-07-07T00:44:42.511Z,14.94
2017-07-07T00:45:01.214Z,14.95
2017-07-07T00:45:19.388Z,14.97
2017-07-07T00:45:38.050Z,14.98
2017-07-07T00:45:56.225Z,15.02
2017-07-07T00:46:14.973Z,15.02
2017-07-07T00:46:34.148Z,14.98
2017-07-07T00:46:52.825Z,14.9
2017-07-07T00:47:10.984Z,14.93
2017-07-07T00:47:30.166Z,14.9
2017-07-07T00:47:49.360Z,14.75
2017-07-07T00:48:08.036Z,14.79
2017-07-07T00:48:26.756Z,14.83
2017-07-07T00:48:45.441Z,14.75
2017-07-07T00:49:04.641Z,14.75
2017-07-07T00:49:23.327Z,14.79
2017-07-07T00:49:42.028Z,14.85
2017-07-07T00:50:01.228Z,14.85
2017-07-07T00:50:19.889Z,14.83
2017-07-07T00:50:38.568Z,14.88
2017-07-07T00:50:57.261Z,14.72
2017-07-07T00:51:15.942Z,14.71
2017-07-07T00:51:34.616Z,14.75
2017-07-07T00:51:52.780Z,14.71
2017-07-07T00:52:11.459Z,14.75
2017-07-07T00:52:30.166Z,14.72
2017-07-07T00:52:49.374Z,14.68
2017-07-07T00:53:08.059Z,14.79
2017-07-07T00:53:27.258Z,14.79
2017-07-07T00:53:46.423Z,14.75
2017-07-07T00:54:04.583Z,14.74
2017-07-07T00:54:23.255Z,14.84
2017-07-07T00:54:42.456Z,14.79
2017-07-07T00:55:01.120Z,14.72
2017-07-07T00:55:20.323Z,14.84
2017-07-07T00:55:39.010Z,14.79
2017-07-07T00:55:58.182Z,14.8
2017-07-07T00:56:17.384Z,14.85
2017-07-07T00:56:36.586Z,14.85
2017-07-07T00:56:55.776Z,14.83
2017-07-07T00:57:14.965Z,14.78
2017-07-07T00:57:33.642Z,14.84
2017-07-07T00:57:52.841Z,14.75
2017-07-07T00:58:11.507Z,14.88
2017-07-07T00:58:29.659Z,14.85
2017-07-07T00:58:48.319Z,14.79
2017-07-07T00:59:07.521Z,14.88
2017-07-07T00:59:25.950Z,14.84
2017-07-07T00:59:44.138Z,14.75
2017-07-07T01:00:02.804Z,14.83
2017-07-07T01:00:20.979Z,14.8
2017-07-07T01:00:39.672Z,14.74
2017-07-07T01:00:57.826Z,14.8
2017-07-07T01:01:15.993Z,14.74
2017-07-07T01:01:35.177Z,14.75
2017-07-07T01:01:53.840Z,14.9
2017-07-07T01:02:12.533Z,14.87
2017-07-07T01:02:31.215Z,14.72
2017-07-07T01:02:50.422Z,14.79
2017-07-07T01:03:09.111Z,14.79
2017-07-07T01:03:28.304Z,14.79
2017-07-07T01:03:47.490Z,14.84
2017-07-07T01:04:06.147Z,14.75
2017-07-07T01:04:24.835Z,14.8
2017-07-07T01:04:44.040Z,14.79
2017-07-07T01:05:02.692Z,14.91
2017-07-07T01:05:21.883Z,14.91
2017-07-07T01:05:40.574Z,14.9
2017-07-07T01:05:58.747Z,14.93
2017-07-07T01:06:16.398Z,15.01
2017-07-07T01:06:34.544Z,14.97
2017-07-07T01:06:53.229Z,14.91
2017-07-07T01:07:11.382Z,14.9
2017-07-07T01:07:30.118Z,14.84
2017-07-07T01:07:48.782Z,14.85
2017-07-07T01:08:07.456Z,14.74
2017-07-07T01:08:26.135Z,14.84
2017-07-07T01:08:45.333Z,14.68
2017-07-07T01:09:04.529Z,14.71
2017-07-07T01:09:23.711Z,14.67
2017-07-07T01:09:42.399Z,14.74
2017-07-07T01:10:01.104Z,14.57
2017-07-07T01:10:19.779Z,14.65
2017-07-07T01:10:38.957Z,14.6
2017-07-07T01:10:58.151Z,14.59
2017-07-07T01:11:16.843Z,14.69
2017-07-07T01:11:36.053Z,14.68
2017-07-07T01:11:55.243Z,14.6
2017-07-07T01:12:13.908Z,14.57
2017-07-07T01:12:32.665Z,14.69
2017-07-07T01:12:50.902Z,14.6
2017-07-07T01:13:10.116Z,14.65
2017-07-07T01:13:28.793Z,14.65
2017-07-07T01:13:47.471Z,14.6
2017-07-07T01:14:06.660Z,14.59
2017-07-07T01:14:25.866Z,14.68
2017-07-07T01:14:44.560Z,14.61
2017-07-07T01:15:02.720Z,14.6
2017-07-07T01:15:20.366Z,14.6
2017-07-07T01:15:39.254Z,14.49
2017-07-07T01:15:58.472Z,14.56
2017-07-07T01:16:17.655Z,14.5
2017-07-07T01:16:35.840Z,14.54
2017-07-07T01:16:54.514Z,14.57
2017-07-07T01:17:13.198Z,14.64
2017-07-07T01:17:32.423Z,14.61
2017-07-07T01:17:51.076Z,14.54
2017-07-07T01:18:10.258Z,14.52
2017-07-07T01:18:28.945Z,14.57
2017-07-07T01:18:47.116Z,14.64
2017-07-07T01:19:05.781Z,14.59
2017-07-07T01:19:24.969Z,14.57
2017-07-07T01:19:43.649Z,14.54
2017-07-07T01:20:02.869Z,14.53
2017-07-07T01:20:21.541Z,14.5
2017-07-07T01:20:40.736Z,14.49
2017-07-07T01:20:58.894Z,14.59
2017-07-07T01:21:18.075Z,14.61
2017-07-07T01:21:37.257Z,14.53
2017-07-07T01:21:55.951Z,14.59
2017-07-07T01:22:13.595Z,14.57
2017-07-07T01:22:30.750Z,14.61
2017-07-07T01:22:48.394Z,14.59
2017-07-07T01:23:07.060Z,14.53
2017-07-07T01:23:24.187Z,14.5
2017-07-07T01:23:42.372Z,14.57
2017-07-07T01:24:00.533Z,14.54
2017-07-07T01:24:18.684Z,14.44
2017-07-07T01:24:37.850Z,14.44
2017-07-07T01:24:56.008Z,14.54
2017-07-07T01:25:14.667Z,14.47
2017-07-07T01:25:33.365Z,14.56
2017-07-07T01:25:52.057Z,14.49
2017-07-07T01:26:10.726Z,14.49
2017-07-07T01:26:29.370Z,14.44
2017-07-07T01:26:48.583Z,14.46
2017-07-07T01:27:07.787Z,14.5
2017-07-07T01:27:26.447Z,14.46
2017-07-07T01:27:44.599Z,14.46
2017-07-07T01:28:03.278Z,14.46
2017-07-07T01:28:22.045Z,14.46
2017-07-07T01:28:40.725Z,14.44
2017-07-07T01:28:58.861Z,14.42
2017-07-07T01:29:18.065Z,14.46
2017-07-07T01:29:36.757Z,14.44
2017-07-07T01:29:55.958Z,14.42
2017-07-07T01:30:14.638Z,14.42
2017-07-07T01:30:33.863Z,14.39
2017-07-07T01:30:53.068Z,14.36
2017-07-07T01:31:12.273Z,14.35
2017-07-07T01:31:31.541Z,14.35
2017-07-07T01:31:49.651Z,14.36
2017-07-07T01:32:08.835Z,14.29
2017-07-07T01:32:28.022Z,14.29
2017-07-07T01:32:46.717Z,14.32
2017-07-07T01:33:05.900Z,14.34
2017-07-07T01:33:24.064Z,14.29
2017-07-07T01:33:43.277Z,14.34
2017-07-07T01:34:02.544Z,14.36
2017-07-07T01:34:21.229Z,14.35
2017-07-07T01:34:39.406Z,14.39
2017-07-07T01:34:58.596Z,14.34
2017-07-07T01:35:17.277Z,14.38
2017-07-07T01:35:36.519Z,14.39
2017-07-07T01:35:54.682Z,14.41
2017-07-07T01:36:12.846Z,14.38
2017-07-07T01:36:32.056Z,14.41
2017-07-07T01:36:50.733Z,14.35
2017-07-07T01:37:08.896Z,14.46
2017-07-07T01:37:26.516Z,14.44
2017-07-07T01:37:45.183Z,14.47
2017-07-07T01:38:04.370Z,14.42
2017-07-07T01:38:23.567Z,14.36
2017-07-07T01:38:42.794Z,14.36
2017-07-07T01:39:01.484Z,14.32
2017-07-07T01:39:20.684Z,14.39
2017-07-07T01:39:39.870Z,14.35
2017-07-07T01:39:58.021Z,14.36
2017-07-07T01:40:16.696Z,14.29
2017-07-07T01:40:35.901Z,14.34
2017-07-07T01:40:55.083Z,14.36
2017-07-07T01:41:13.762Z,14.34
2017-07-07T01:41:31.410Z,14.36
2017-07-07T01:41:50.577Z,14.32
2017-07-07T01:42:09.760Z,14.27
2017-07-07T01:42:28.932Z,14.2
2017-07-07T01:42:46.589Z,14.29
2017-07-07T01:43:04.769Z,14.32
2017-07-07T01:43:23.958Z,14.21
2017-07-07T01:43:42.640Z,14.2
2017-07-07T01:44:01.849Z,14.28
2017-07-07T01:44:21.031Z,14.34
2017-07-07T01:44:39.706Z,14.32
2017-07-07T01:44:58.374Z,14.28
2017-07-07T01:45:16.018Z,14.34
2017-07-07T01:45:34.712Z,14.35
2017-07-07T01:45:52.371Z,14.35
2017-07-07T01:46:11.548Z,14.44
2017-07-07T01:46:30.741Z,14.44
2017-07-07T01:46:49.425Z,14.5
2017-07-07T01:47:08.622Z,14.41
2017-07-07T01:47:27.812Z,14.42
2017-07-07T01:47:45.450Z,14.53
2017-07-07T01:48:04.635Z,14.52
2017-07-07T01:48:23.314Z,14.54
2017-07-07T01:48:42.012Z,14.59
2017-07-07T01:49:01.230Z,14.61
2017-07-07T01:49:18.878Z,14.64
2017-07-07T01:49:37.557Z,14.59
2017-07-07T01:49:55.723Z,14.54
2017-07-07T01:50:13.892Z,14.64
2017-07-07T01:50:32.586Z,14.68
2017-07-07T01:50:51.261Z,14.67
2017-07-07T01:51:08.922Z,14.71
2017-07-07T01:51:27.591Z,14.72
2017-07-07T01:51:46.291Z,14.61
2017-07-07T01:52:04.469Z,14.75
2017-07-07T01:52:22.637Z,14.71
2017-07-07T01:52:40.811Z,14.71
2017-07-07T01:52:59.492Z,14.67
2017-07-07T01:53:16.613Z,14.59
2017-07-07T01:53:34.803Z,14.71
2017-07-07T01:53:53.469Z,14.72
2017-07-07T01:54:12.143Z,14.8
2017-07-07T01:54:31.346Z,14.67
2017-07-07T01:54:50.082Z,14.68
2017-07-07T01:55:08.252Z,14.65
2017-07-07T01:55:27.022Z,14.72
2017-07-07T01:55:45.723Z,14.75
2017-07-07T01:56:03.374Z,14.74
2017-07-07T01:56:22.573Z,14.75
2017-07-07T01:56:41.746Z,14.88
2017-07-07T01:57:00.404Z,14.91
2017-07-07T01:57:18.070Z,14.85
2017-07-07T01:57:37.278Z,14.85
2017-07-07T01:57:55.938Z,14.88
2017-07-07T01:58:15.139Z,14.87
2017-07-07T01:58:34.343Z,14.79
2017-07-07T01:58:53.559Z,14.85
2017-07-07T01:59:12.255Z,14.88
2017-07-07T01:59:30.953Z,14.91
2017-07-07T01:59:50.170Z,14.87
2017-07-07T02:00:08.346Z,14.93
2017-07-07T02:00:27.541Z,14.94
2017-07-07T02:00:46.732Z,14.95
2017-07-07T02:01:04.881Z,14.94
2017-07-07T02:01:23.549Z,15.01
2017-07-07T02:02:15.120Z,14.91
2017-07-07T02:07:59.638Z,15.06
2017-07-07T02:08:18.351Z,15.02
2017-07-07T02:08:37.579Z,14.98
2017-07-07T02:08:55.816Z,15.08
2017-07-07T02:09:14.547Z,15.06
2017-07-07T02:09:33.272Z,15.03
2017-07-07T02:09:52.000Z,15.05
2017-07-07T02:10:11.288Z,15.1
2017-07-07T02:10:30.555Z,15.1
2017-07-07T02:10:49.816Z,15.13
2017-07-07T02:11:08.549Z,15.16
2017-07-07T02:11:27.771Z,15.13
2017-07-07T02:11:46.464Z,15.23
2017-07-07T02:12:05.697Z,15.16
2017-07-07T02:12:25.008Z,15.08
2017-07-07T02:12:44.367Z,15.09
2017-07-07T02:13:03.596Z,15.13
2017-07-07T02:13:22.319Z,15.09
2017-07-07T02:13:41.021Z,15.08
2017-07-07T02:14:00.221Z,15.08
2017-07-07T02:14:18.385Z,15.03
2017-07-07T02:14:37.588Z,15.02
2017-07-07T02:14:55.757Z,15.09
2017-07-07T02:15:14.433Z,15.03
2017-07-07T02:15:33.115Z,15.09
2017-07-07T02:15:51.802Z,15.02
2017-07-07T02:16:09.448Z,15.06
2017-07-07T02:16:27.609Z,15.08
2017-07-07T02:16:46.782Z,15.03
2017-07-07T02:17:05.482Z,15.03
2017-07-07T02:17:24.174Z,15.09
2017-07-07T02:17:43.353Z,14.95
2017-07-07T02:18:02.010Z,15.03
2017-07-07T02:18:20.678Z,15.09
2017-07-07T02:18:39.864Z,15.06
2017-07-07T02:18:59.099Z,15.09
2017-07-07T02:19:17.858Z,15.02
2017-07-07T02:19:37.154Z,15.02
2017-07-07T02:19:56.461Z,15.03
2017-07-07T02:20:15.219Z,15.09
2017-07-07T02:20:34.501Z,15.06
2017-07-07T02:20:52.212Z,15.02
2017-07-07T02:21:11.492Z,15.08
2017-07-07T02:21:30.764Z,15.06
2017-07-07T02:21:49.547Z,14.95
2017-07-07T02:22:08.293Z,15.05
2017-07-07T02:22:26.011Z,15.08
2017-07-07T02:22:44.796Z,15.02
2017-07-07T02:23:02.502Z,14.93
2017-07-07T02:23:19.711Z,14.95
2017-07-07T02:23:38.462Z,14.95
2017-07-07T02:23:57.213Z,14.97
2017-07-07T02:24:15.979Z,14.94
2017-07-07T02:24:35.285Z,14.93
2017-07-07T02:24:54.577Z,14.91
2017-07-07T02:25:13.437Z,14.94
2017-07-07T02:25:31.161Z,15.03
2017-07-07T02:25:49.903Z,14.94
2017-07-07T02:26:08.668Z,15.02
2017-07-07T02:26:27.988Z,15.08
2017-07-07T02:26:46.779Z,15.01
2017-07-07T02:27:06.070Z,14.91
2017-07-07T02:27:24.337Z,14.94
2017-07-07T02:27:42.050Z,15.03
2017-07-07T02:28:00.809Z,15.03
2017-07-07T02:28:19.583Z,15.05
2017-07-07T02:28:38.369Z,15.01
2017-07-07T02:28:57.131Z,15.06
2017-07-07T02:29:15.357Z,14.95
2017-07-07T02:29:33.630Z,15.02
2017-07-07T02:29:52.927Z,15.05
2017-07-07T02:30:11.687Z,15.01
2017-07-07T02:30:30.450Z,15.09
2017-07-07T02:30:48.178Z,15.06
2017-07-07T02:31:07.450Z,15.05
2017-07-07T02:31:25.164Z,14.94
2017-07-07T02:31:43.409Z,14.91
2017-07-07T02:32:01.723Z,14.97
2017-07-07T02:32:20.493Z,14.87
2017-07-07T02:32:39.280Z,14.9
2017-07-07T02:32:58.075Z,14.98
2017-07-07T02:33:17.381Z,14.88
2017-07-07T02:33:36.041Z,14.84
2017-07-07T02:33:54.845Z,14.94
2017-07-07T02:34:13.060Z,14.88
2017-07-07T02:34:31.370Z,14.85
2017-07-07T02:34:50.123Z,14.78
2017-07-07T02:35:08.358Z,14.84
2017-07-07T02:35:26.449Z,14.8
2017-07-07T02:35:45.403Z,14.79
2017-07-07T02:36:04.170Z,14.83
2017-07-07T02:36:22.946Z,14.74
2017-07-07T02:36:41.706Z,14.75
2017-07-07T02:36:59.511Z,14.71
2017-07-07T02:37:17.995Z,14.84
2017-07-07T02:37:36.224Z,14.87
2017-07-07T02:37:55.032Z,14.74
2017-07-07T02:38:13.814Z,14.87
2017-07-07T02:38:32.592Z,14.9
2017-07-07T02:38:50.861Z,14.88
2017-07-07T02:39:10.159Z,14.9
2017-07-07T02:39:29.466Z,14.85
2017-07-07T02:39:48.767Z,14.87
2017-07-07T02:40:07.173Z,14.84
2017-07-07T02:40:25.560Z,14.74
2017-07-07T02:40:44.837Z,14.87
2017-07-07T02:41:03.064Z,14.83
2017-07-07T02:41:22.346Z,14.79
2017-07-07T02:41:41.612Z,14.75
2017-07-07T02:42:00.359Z,14.72
2017-07-07T02:42:18.645Z,14.72
2017-07-07T02:42:37.923Z,14.78
2017-07-07T02:42:56.688Z,14.85
2017-07-07T02:43:15.452Z,14.88
2017-07-07T02:43:33.709Z,14.85
2017-07-07T02:43:53.004Z,14.9
2017-07-07T02:44:11.232Z,14.91
2017-07-07T02:44:30.016Z,14.84
2017-07-07T02:44:47.734Z,14.9
2017-07-07T02:45:06.494Z,14.83
2017-07-07T02:45:25.762Z,14.79
2017-07-07T02:45:45.062Z,14.83
2017-07-07T02:46:04.364Z,14.83
2017-07-07T02:46:23.192Z,14.9
2017-07-07T02:46:41.964Z,14.79
2017-07-07T02:47:01.223Z,14.71
2017-07-07T02:47:19.990Z,14.83
2017-07-07T02:47:38.243Z,14.83
2017-07-07T02:47:56.470Z,14.72
2017-07-07T02:48:14.735Z,14.74
2017-07-07T02:48:33.576Z,14.74
2017-07-07T02:48:52.876Z,14.74
2017-07-07T02:49:12.211Z,14.68
2017-07-07T02:49:31.513Z,14.64
2017-07-07T02:49:50.837Z,14.6
2017-07-07T02:50:09.089Z,14.65
2017-07-07T02:50:28.401Z,14.61
2017-07-07T02:50:45.637Z,14.74
2017-07-07T02:51:04.446Z,14.67
2017-07-07T02:51:23.216Z,14.75
2017-07-07T02:51:41.980Z,14.75
2017-07-07T02:52:01.291Z,14.75
2017-07-07T02:52:20.565Z,14.71
2017-07-07T02:52:38.826Z,14.74
2017-07-07T02:52:58.142Z,14.71
2017-07-07T02:53:16.388Z,14.8
2017-07-07T02:53:35.162Z,14.8
2017-07-07T02:53:53.932Z,14.75
2017-07-07T02:54:12.711Z,14.67
2017-07-07T02:54:32.057Z,14.74
2017-07-07T02:54:51.359Z,14.75
2017-07-07T02:55:10.138Z,14.68
2017-07-07T02:55:28.890Z,14.72
2017-07-07T02:55:48.196Z,14.71
2017-07-07T02:56:06.948Z,14.72
2017-07-07T02:56:25.758Z,14.71
2017-07-07T02:56:44.521Z,14.68
2017-07-07T02:57:03.300Z,14.72
2017-07-07T02:57:21.019Z,14.75
2017-07-07T02:57:38.768Z,14.74
2017-07-07T02:57:56.984Z,14.68
2017-07-07T02:58:15.755Z,14.67
2017-07-07T02:58:35.050Z,14.71
2017-07-07T02:58:53.290Z,14.71
2017-07-07T02:59:12.052Z,14.68
2017-07-07T02:59:30.835Z,14.71
2017-07-07T02:59:50.127Z,14.59
2017-07-07T03:00:08.879Z,14.61
2017-07-07T03:00:28.143Z,14.6
2017-07-07T03:00:47.409Z,14.6
2017-07-07T03:01:05.675Z,14.6
2017-07-07T03:01:24.972Z,14.68
2017-07-07T03:01:43.743Z,14.74
2017-07-07T03:02:02.022Z,14.71
2017-07-07T03:02:20.774Z,14.74
2017-07-07T03:02:39.016Z,14.71
2017-07-07T03:02:57.759Z,14.71
2017-07-07T03:03:15.978Z,14.67
2017-07-07T03:03:35.272Z,14.6
2017-07-07T03:03:54.035Z,14.57
2017-07-07T03:04:13.353Z,14.6
2017-07-07T03:04:32.635Z,14.69
2017-07-07T03:04:51.907Z,14.59
2017-07-07T03:05:10.710Z,14.65
2017-07-07T03:05:28.900Z,14.67
2017-07-07T03:05:47.708Z,14.65
2017-07-07T03:06:07.014Z,14.64
2017-07-07T03:06:25.805Z,14.69
2017-07-07T03:06:44.552Z,14.57
2017-07-07T03:07:03.878Z,14.59
2017-07-07T03:07:22.635Z,14.57
2017-07-07T03:07:41.400Z,14.6
2017-07-07T03:08:00.185Z,14.56
2017-07-07T03:08:19.275Z,14.52
2017-07-07T03:08:37.752Z,14.52
2017-07-07T03:08:56.521Z,14.47
2017-07-07T03:09:15.780Z,14.42
2017-07-07T03:09:34.616Z,14.39
2017-07-07T03:09:53.356Z,14.36
2017-07-07T03:10:12.622Z,14.44
2017-07-07T03:10:31.363Z,14.35
2017-07-07T03:10:49.617Z,14.27
2017-07-07T03:11:08.891Z,14.36
2017-07-07T03:11:27.671Z,14.32
2017-07-07T03:11:46.431Z,14.29
2017-07-07T03:12:05.722Z,14.32
2017-07-07T03:12:24.472Z,14.34
2017-07-07T03:12:43.249Z,14.32
2017-07-07T03:13:02.605Z,14.28
2017-07-07T03:13:21.910Z,14.24
2017-07-07T03:13:40.682Z,14.16
2017-07-07T03:13:59.476Z,14.24
2017-07-07T03:14:18.257Z,14.31
2017-07-07T03:14:37.043Z,14.27
2017-07-07T03:14:55.287Z,14.32
2017-07-07T03:15:13.530Z,14.27
2017-07-07T03:15:33.029Z,14.2
2017-07-07T03:15:51.278Z,14.28
2017-07-07T03:16:10.579Z,14.32
2017-07-07T03:16:29.355Z,14.32
2017-07-07T03:16:48.129Z,14.34
2017-07-07T03:17:07.398Z,14.24
2017-07-07T03:17:26.705Z,14.27
2017-07-07T03:17:45.476Z,14.41
2017-07-07T03:18:04.781Z,14.31
2017-07-07T03:18:24.071Z,14.27
2017-07-07T03:18:43.415Z,14.42
2017-07-07T03:19:01.696Z,14.41
2017-07-07T03:19:19.427Z,14.38
2017-07-07T03:19:38.260Z,14.27
2017-07-07T03:19:57.030Z,14.34
2017-07-07T03:20:15.830Z,14.28
2017-07-07T03:20:35.132Z,14.31
2017-07-07T03:20:53.393Z,14.27
2017-07-07T03:21:11.659Z,14.38
2017-07-07T03:21:30.464Z,14.31
2017-07-07T03:21:49.730Z,14.34
2017-07-07T03:22:08.486Z,14.35
2017-07-07T03:22:27.238Z,14.28
2017-07-07T03:22:43.910Z,14.32
2017-07-07T03:23:01.629Z,14.28
2017-07-07T03:23:19.330Z,14.36
2017-07-07T03:23:37.044Z,14.31
2017-07-07T03:23:54.756Z,14.39
2017-07-07T03:24:13.001Z,14.35
2017-07-07T03:24:31.242Z,14.44
2017-07-07T03:24:50.016Z,14.34
2017-07-07T03:25:09.310Z,14.36
2017-07-07T03:25:28.593Z,14.38
2017-07-07T03:25:47.368Z,14.46
2017-07-07T03:26:05.096Z,14.49
2017-07-07T03:26:23.875Z,14.42
2017-07-07T03:26:42.643Z,14.44
2017-07-07T03:27:01.415Z,14.46
2017-07-07T03:27:19.138Z,14.41
2017-07-07T03:27:37.897Z,14.36
2017-07-07T03:27:56.633Z,14.36
2017-07-07T03:28:15.907Z,14.42
2017-07-07T03:28:35.227Z,14.46
2017-07-07T03:28:54.510Z,14.41
2017-07-07T03:29:13.265Z,14.44
2017-07-07T03:29:32.568Z,14.44
2017-07-07T03:29:50.849Z,14.46
2017-07-07T03:30:09.088Z,14.46
2017-07-07T03:30:27.929Z,14.46
2017-07-07T03:30:46.701Z,14.38
2017-07-07T03:31:04.951Z,14.44
2017-07-07T03:31:23.722Z,14.41
2017-07-07T03:31:43.017Z,14.44
2017-07-07T03:32:02.307Z,14.42
2017-07-07T03:32:20.548Z,14.47
2017-07-07T03:32:39.841Z,14.47
2017-07-07T03:32:58.616Z,14.41
2017-07-07T03:33:17.371Z,14.41
2017-07-07T03:33:35.603Z,14.41
2017-07-07T03:33:54.357Z,14.36
2017-07-07T03:34:12.601Z,14.44
2017-07-07T03:34:31.377Z,14.42
2017-07-07T03:34:50.184Z,14.41
2017-07-07T03:35:08.952Z,14.38
2017-07-07T03:35:27.727Z,14.38
2017-07-07T03:35:45.443Z,14.39
2017-07-07T03:36:04.234Z,14.36
2017-07-07T03:36:23.386Z,14.36
2017-07-07T03:36:41.619Z,14.35
2017-07-07T03:37:00.899Z,14.35
2017-07-07T03:37:19.696Z,14.27
2017-07-07T03:37:38.976Z,14.28
2017-07-07T03:37:56.704Z,14.42
2017-07-07T03:38:15.975Z,14.28
2017-07-07T03:38:34.729Z,14.29
2017-07-07T03:38:54.053Z,14.31
2017-07-07T03:39:13.342Z,14.38
2017-07-07T03:39:32.646Z,14.28
2017-07-07T03:39:51.422Z,14.36
2017-07-07T03:40:10.718Z,14.29
2017-07-07T03:40:29.066Z,14.28
2017-07-07T03:40:48.349Z,14.21
2017-07-07T03:41:07.145Z,14.2
2017-07-07T03:41:26.442Z,14.23
2017-07-07T03:41:44.692Z,14.17
2017-07-07T03:42:03.954Z,14.16
2017-07-07T03:42:22.749Z,14.09
2017-07-07T03:42:42.035Z,14.09
2017-07-07T03:43:00.807Z,14.17
2017-07-07T03:43:18.536Z,14.2
2017-07-07T03:43:36.820Z,14.14
2017-07-07T03:43:55.085Z,14.17
2017-07-07T03:44:14.400Z,14.17
2017-07-07T03:44:33.170Z,14.11
2017-07-07T03:44:51.419Z,14.05
2017-07-07T03:45:10.230Z,14.19
2017-07-07T03:45:29.523Z,14.14
2017-07-07T03:45:47.770Z,14.01
2017-07-07T03:46:07.053Z,14.16
2017-07-07T03:46:25.305Z,14.02
2017-07-07T03:46:44.097Z,13.99
2017-07-07T03:47:02.859Z,14.02
2017-07-07T03:47:21.618Z,14.09
2017-07-07T03:47:40.926Z,14.1
2017-07-07T03:47:59.711Z,14.02
2017-07-07T03:48:18.479Z,13.95
2017-07-07T03:48:37.238Z,13.92
2017-07-07T03:48:55.999Z,13.92
2017-07-07T03:49:15.280Z,13.92
2017-07-07T03:49:34.568Z,13.96
2017-07-07T03:49:52.827Z,13.95
2017-07-07T03:50:11.613Z,14.02
2017-07-07T03:50:30.920Z,13.87
2017-07-07T03:50:49.692Z,13.84
2017-07-07T03:51:08.481Z,13.84
2017-07-07T03:51:27.771Z,13.81
2017-07-07T03:51:47.084Z,13.87
2017-07-07T03:52:05.318Z,13.92
2017-07-07T03:52:24.620Z,13.84
2017-07-07T03:52:43.898Z,13.87
2017-07-07T03:53:02.649Z,13.8
2017-07-07T03:53:20.900Z,13.81
2017-07-07T03:53:39.670Z,13.81
2017-07-07T03:53:57.924Z,13.86
2017-07-07T03:54:16.694Z,13.73
2017-07-07T03:54:35.478Z,13.83
2017-07-07T03:54:54.773Z,13.83
2017-07-07T03:55:14.068Z,13.84
2017-07-07T03:55:32.854Z,13.83
2017-07-07T03:55:52.161Z,13.87
2017-07-07T03:56:11.438Z,13.86
2017-07-07T03:56:30.717Z,13.81
2017-07-07T03:56:50.031Z,13.86
2017-07-07T03:57:09.312Z,13.81
2017-07-07T03:57:28.086Z,13.76
2017-07-07T03:57:47.462Z,13.78
2017-07-07T03:58:06.223Z,13.76
2017-07-07T03:58:24.995Z,13.77
2017-07-07T03:58:43.767Z,13.74
2017-07-07T03:59:03.071Z,13.77
2017-07-07T03:59:22.360Z,13.8
2017-07-07T03:59:41.656Z,13.76
2017-07-07T04:00:00.935Z,13.8
2017-07-07T04:00:18.658Z,13.76
2017-07-07T04:00:39.067Z,13.81
2017-07-07T04:00:56.784Z,13.74
2017-07-07T04:01:15.539Z,13.8
2017-07-07T04:01:33.796Z,13.8
2017-07-07T04:01:52.560Z,13.78
2017-07-07T04:02:11.364Z,13.78
2017-07-07T04:02:29.097Z,13.81
2017-07-07T04:02:48.393Z,13.81
2017-07-07T04:03:07.156Z,13.8
2017-07-07T04:03:25.944Z,13.89
2017-07-07T04:03:44.706Z,13.86
2017-07-07T04:04:03.961Z,13.78
2017-07-07T04:04:22.721Z,13.86
2017-07-07T04:04:41.539Z,13.91
2017-07-07T04:05:00.841Z,13.84
2017-07-07T04:05:18.566Z,13.86
2017-07-07T04:05:37.305Z,13.83
2017-07-07T04:05:56.058Z,13.71
2017-07-07T04:06:13.775Z,13.77
2017-07-07T04:06:33.101Z,13.83
2017-07-07T04:06:51.843Z,13.7
2017-07-07T04:07:10.096Z,13.76
2017-07-07T04:07:27.841Z,13.78
2017-07-07T04:07:46.632Z,13.77